createdAt,value
2019-05-23T00:00:33.316Z,79.90
2019-05-23T00:01:33.331Z,80.09
2019-05-23T00:02:33.306Z,79.90
2019-05-23T00:03:33.300Z,79.52
2019-05-23T00:04:33.291Z,79.80
2019-05-23T00:05:33.284Z,79.33
2019-05-23T00:06:33.276Z,79.14
2019-05-23T00:07:33.273Z,79.23
2019-05-23T00:08:33.260Z,78.75
2019-05-23T00:09:33.257Z,78.75
2019-05-23T00:10:33.246Z,78.56
2019-05-23T00:11:33.253Z,78.75
2019-05-23T00:12:33.237Z,79.43
2019-05-23T00:13:33.229Z,79.14
2019-05-23T00:14:33.220Z,78.28
2019-05-23T00:15:33.211Z,78.75
2019-05-23T00:16:33.212Z,78.85
2019-05-23T00:17:33.203Z,78.66
2019-05-23T00:18:33.192Z,79.99
2019-05-23T00:19:33.202Z,81.04
2019-05-23T00:20:33.186Z,81.52
2019-05-23T00:21:33.171Z,79.43
2019-05-23T00:22:33.164Z,80.47
2019-05-23T00:23:33.159Z,80.19
2019-05-23T00:24:33.147Z,80.19
2019-05-23T00:25:33.141Z,80.85
2019-05-23T00:26:33.136Z,80.85
2019-05-23T00:27:33.130Z,80.76
2019-05-23T00:28:33.121Z,79.99
2019-05-23T00:29:33.118Z,80.28
2019-05-23T00:30:33.107Z,79.71
2019-05-23T00:31:33.104Z,81.14
2019-05-23T00:32:33.092Z,80.81
2019-05-23T00:33:33.089Z,80.53
2019-05-23T00:34:33.078Z,80.85
2019-05-23T00:35:33.073Z,82.34
2019-05-23T00:36:33.062Z,79.61
2019-05-23T00:37:33.060Z,79.04
2019-05-23T00:38:33.068Z,77.42
2019-05-23T00:39:33.047Z,79.04
2019-05-23T00:40:33.036Z,80.57
2019-05-23T00:41:33.033Z,80.47
2019-05-23T00:42:33.024Z,81.90
2019-05-23T00:43:33.016Z,82.91
2019-05-23T00:44:33.008Z,81.29
2019-05-23T00:45:33.000Z,80.43
2019-05-23T00:46:32.995Z,81.01
2019-05-23T00:47:32.981Z,83.20
2019-05-23T00:48:32.984Z,82.82
2019-05-23T00:49:32.973Z,83.29
2019-05-23T00:50:32.969Z,85.01
2019-05-23T00:51:32.970Z,80.62
2019-05-23T00:52:32.946Z,80.62
2019-05-23T00:53:32.942Z,81.96
2019-05-23T00:54:32.936Z,82.91
2019-05-23T00:55:32.926Z,80.33
2019-05-23T00:56:32.919Z,81.38
2019-05-23T00:57:32.917Z,83.67
2019-05-23T00:58:32.948Z,83.48
2019-05-23T00:59:32.904Z,84.44
2019-05-23T01:00:32.891Z,82.43
2019-05-23T01:01:32.883Z,83.48
2019-05-23T01:02:32.881Z,80.53
2019-05-23T01:03:32.865Z,80.91
2019-05-23T01:04:32.862Z,82.72
2019-05-23T01:05:32.851Z,83.11
2019-05-23T01:06:32.848Z,80.81
2019-05-23T01:07:32.840Z,82.34
2019-05-23T01:08:32.831Z,83.29
2019-05-23T01:09:32.826Z,83.77
2019-05-23T01:10:32.814Z,83.39
2019-05-23T01:11:32.809Z,82.53
2019-05-23T01:12:32.807Z,82.43
2019-05-23T01:13:32.796Z,83.58
2019-05-23T01:14:32.791Z,84.44
2019-05-23T01:15:32.776Z,83.67
2019-05-23T01:16:32.773Z,84.44
2019-05-23T01:17:32.764Z,85.68
2019-05-23T01:18:32.756Z,85.68
2019-05-23T01:19:32.747Z,84.06
2019-05-23T01:20:32.745Z,82.43
2019-05-23T01:21:32.735Z,82.82
2019-05-23T01:22:32.728Z,86.06
2019-05-23T01:23:32.719Z,86.98
2019-05-23T01:24:32.711Z,87.21
2019-05-23T01:25:32.702Z,87.30
2019-05-23T01:26:32.703Z,88.02
2019-05-23T01:27:32.715Z,87.26
2019-05-23T01:28:32.680Z,87.83
2019-05-23T01:29:37.635Z,88.69
2019-05-23T01:30:32.668Z,89.45
2019-05-23T01:31:32.656Z,89.45
2019-05-23T01:32:32.646Z,89.54
2019-05-23T01:33:32.644Z,90.03
2019-05-23T01:34:32.633Z,90.03
2019-05-23T01:35:32.628Z,90.03
2019-05-23T01:36:32.622Z,90.69
2019-05-23T01:37:32.614Z,91.27
2019-05-23T01:38:32.612Z,91.64
2019-05-23T01:39:32.598Z,91.64
2019-05-23T01:40:32.588Z,91.64
2019-05-23T01:41:32.580Z,91.74
2019-05-23T01:42:32.576Z,92.03
2019-05-23T01:43:32.566Z,91.64
2019-05-23T01:44:32.561Z,91.83
2019-05-23T01:45:32.550Z,91.17
2019-05-23T01:46:32.545Z,91.64
2019-05-23T01:47:32.537Z,91.27
2019-05-23T01:48:32.528Z,90.98
2019-05-23T01:49:32.525Z,91.64
2019-05-23T01:50:32.515Z,92.03
2019-05-23T01:51:32.508Z,92.46
2019-05-23T01:52:32.502Z,92.93
2019-05-23T01:53:32.487Z,93.36
2019-05-23T01:54:32.482Z,93.55
2019-05-23T01:55:32.478Z,93.03
2019-05-23T01:56:32.473Z,93.60
2019-05-23T01:57:32.459Z,94.08
2019-05-23T01:58:32.448Z,93.60
2019-05-23T01:59:32.442Z,93.60
2019-05-23T02:00:32.434Z,93.88
2019-05-23T02:01:32.438Z,92.55
2019-05-23T02:02:32.417Z,93.22
2019-05-23T02:03:32.413Z,93.41
2019-05-23T02:04:32.408Z,92.74
2019-05-23T02:05:32.405Z,94.17
2019-05-23T02:06:32.388Z,93.60
2019-05-23T02:07:32.382Z,93.60
2019-05-23T02:08:32.372Z,93.88
2019-05-23T02:09:32.370Z,93.12
2019-05-23T02:10:32.355Z,93.79
2019-05-23T02:11:32.356Z,93.88
2019-05-23T02:12:32.340Z,94.56
2019-05-23T02:13:32.335Z,94.84
2019-05-23T02:14:32.327Z,94.84
2019-05-23T02:15:32.318Z,95.03
2019-05-23T02:16:32.313Z,95.32
2019-05-23T02:17:32.312Z,95.41
2019-05-23T02:18:32.295Z,95.32
2019-05-23T02:19:32.286Z,95.12
2019-05-23T02:20:32.282Z,95.03
2019-05-23T02:21:32.272Z,94.84
2019-05-23T02:22:32.264Z,94.56
2019-05-23T02:23:32.257Z,94.56
2019-05-23T02:24:32.246Z,94.27
2019-05-23T02:25:32.243Z,93.88
2019-05-23T02:26:32.250Z,93.41
2019-05-23T02:27:32.224Z,93.98
2019-05-23T02:28:32.214Z,93.79
2019-05-23T02:29:32.309Z,94.17
2019-05-23T02:30:35.454Z,94.65
2019-05-23T02:31:32.187Z,94.74
2019-05-23T02:32:32.188Z,94.65
2019-05-23T02:33:32.181Z,94.74
2019-05-23T02:34:32.168Z,94.74
2019-05-23T02:35:32.160Z,94.93
2019-05-23T02:36:32.157Z,95.32
2019-05-23T02:37:32.147Z,95.32
2019-05-23T02:38:32.140Z,95.51
2019-05-23T02:39:32.131Z,95.98
2019-05-23T02:40:32.121Z,95.41
2019-05-23T02:41:32.118Z,95.94
2019-05-23T02:42:32.105Z,96.03
2019-05-23T02:43:32.100Z,96.12
2019-05-23T02:44:32.094Z,96.03
2019-05-23T02:45:32.084Z,96.22
2019-05-23T02:46:32.089Z,96.41
2019-05-23T02:47:32.066Z,96.12
2019-05-23T02:48:32.058Z,94.89
2019-05-23T02:49:32.055Z,95.27
2019-05-23T02:50:32.044Z,95.36
2019-05-23T02:51:32.035Z,95.46
2019-05-23T02:52:32.029Z,96.22
2019-05-23T02:53:32.020Z,96.03
2019-05-23T02:54:32.010Z,95.84
2019-05-23T02:55:32.051Z,96.22
2019-05-23T02:56:32.028Z,96.03
2019-05-23T02:57:31.986Z,96.51
2019-05-23T02:58:31.987Z,96.41
2019-05-23T02:59:31.972Z,96.51
2019-05-23T03:00:31.965Z,96.60
2019-05-23T03:01:31.952Z,96.41
2019-05-23T03:02:31.947Z,96.60
2019-05-23T03:03:31.941Z,97.65
2019-05-23T03:04:31.928Z,96.51
2019-05-23T03:05:31.925Z,96.51
2019-05-23T03:06:31.916Z,96.84
2019-05-23T03:07:31.910Z,96.65
2019-05-23T03:08:31.919Z,96.65
2019-05-23T03:09:31.892Z,96.84
2019-05-23T03:10:31.886Z,96.94
2019-05-23T03:11:31.871Z,97.31
2019-05-23T03:12:31.868Z,97.03
2019-05-23T03:13:31.857Z,97.22
2019-05-23T03:14:31.851Z,97.84
2019-05-23T03:15:31.843Z,97.94
2019-05-23T03:16:31.839Z,97.60
2019-05-23T03:17:31.827Z,97.60
2019-05-23T03:18:34.591Z,97.75
2019-05-23T03:19:31.814Z,97.70
2019-05-23T03:20:31.805Z,97.99
2019-05-23T03:21:31.796Z,97.89
2019-05-23T03:22:31.785Z,97.31
2019-05-23T03:23:31.781Z,97.51
2019-05-23T03:24:31.778Z,97.99
2019-05-23T03:25:31.760Z,97.89
2019-05-23T03:26:31.761Z,96.84
2019-05-23T03:27:31.753Z,96.94
2019-05-23T03:28:31.735Z,96.84
2019-05-23T03:29:31.735Z,96.94
2019-05-23T03:30:31.729Z,97.79
2019-05-23T03:31:32.875Z,97.60
2019-05-23T03:32:38.274Z,97.41
2019-05-23T03:33:31.727Z,97.99
2019-05-23T03:34:31.704Z,97.41
2019-05-23T03:35:31.690Z,97.89
2019-05-23T03:36:31.692Z,97.79
2019-05-23T03:37:31.674Z,97.79
2019-05-23T03:38:31.668Z,97.79
2019-05-23T03:39:31.649Z,97.79
2019-05-23T03:40:31.643Z,97.99
2019-05-23T03:41:31.639Z,98.18
2019-05-23T03:42:31.620Z,97.99
2019-05-23T03:43:31.617Z,98.18
2019-05-23T03:44:31.606Z,98.08
2019-05-23T03:45:31.605Z,97.79
2019-05-23T03:46:31.590Z,96.94
2019-05-23T03:47:31.583Z,97.22
2019-05-23T03:48:31.575Z,97.89
2019-05-23T03:49:31.569Z,98.27
2019-05-23T03:50:31.563Z,98.08
2019-05-23T03:51:31.547Z,97.70
2019-05-23T03:52:31.542Z,97.70
2019-05-23T03:53:31.540Z,98.08
2019-05-23T03:54:31.537Z,97.89
2019-05-23T03:55:31.520Z,98.08
2019-05-23T03:56:31.526Z,98.36
2019-05-23T03:57:31.506Z,98.08
2019-05-23T03:58:31.496Z,99.13
2019-05-23T03:59:31.514Z,99.99
2019-05-23T04:00:31.507Z,99.13
2019-05-23T04:01:47.137Z,99.98
2019-05-23T04:02:31.460Z,99.99
2019-05-23T04:03:31.454Z,99.13
2019-05-23T04:04:31.449Z,99.22
2019-05-23T04:05:31.438Z,99.32
2019-05-23T04:06:31.423Z,99.51
2019-05-23T04:07:31.423Z,99.41
2019-05-23T04:08:31.412Z,99.32
2019-05-23T04:09:31.408Z,99.03
2019-05-23T04:10:31.397Z,99.22
2019-05-23T04:11:31.388Z,98.74
2019-05-23T04:12:31.379Z,99.22
2019-05-23T04:13:31.375Z,99.41
2019-05-23T04:14:31.364Z,99.60
2019-05-23T04:15:31.353Z,99.22
2019-05-23T04:16:31.351Z,99.41
2019-05-23T04:17:31.342Z,99.13
2019-05-23T04:18:31.332Z,98.65
2019-05-23T04:19:31.341Z,99.55
2019-05-23T04:20:31.316Z,99.41
2019-05-23T04:21:31.311Z,98.27
2019-05-23T04:22:31.325Z,98.70
2019-05-23T04:23:31.299Z,98.36
2019-05-23T04:24:31.294Z,99.18
2019-05-23T04:25:31.275Z,99.37
2019-05-23T04:26:31.270Z,99.75
2019-05-23T04:27:31.347Z,99.55
2019-05-23T04:28:31.248Z,99.75
2019-05-23T04:29:31.244Z,99.99
2019-05-23T04:30:31.233Z,99.75
2019-05-23T04:31:31.226Z,99.99
2019-05-23T04:32:31.219Z,99.55
2019-05-23T04:33:31.223Z,99.46
2019-05-23T04:34:31.205Z,99.65
2019-05-23T04:35:31.209Z,99.65
2019-05-23T04:36:31.188Z,99.27
2019-05-23T04:37:31.180Z,99.94
2019-05-23T04:38:31.170Z,99.37
2019-05-23T04:39:31.164Z,99.55
2019-05-23T04:40:31.161Z,99.55
2019-05-23T04:41:31.156Z,99.08
2019-05-23T04:42:31.140Z,99.75
2019-05-23T04:43:31.138Z,99.46
2019-05-23T04:44:31.128Z,98.79
2019-05-23T04:45:31.120Z,97.94
2019-05-23T04:46:31.106Z,98.56
2019-05-23T04:47:31.129Z,99.13
2019-05-23T04:48:31.105Z,98.27
2019-05-23T04:49:31.099Z,98.85
2019-05-23T04:50:31.157Z,99.22
2019-05-23T04:51:31.089Z,99.99
2019-05-23T04:52:31.064Z,99.41
2019-05-23T04:53:31.059Z,99.32
2019-05-23T04:54:31.060Z,99.60
2019-05-23T04:55:31.053Z,99.99
2019-05-23T04:56:31.044Z,99.32
2019-05-23T04:57:31.036Z,97.80
2019-05-23T04:58:31.020Z,98.18
2019-05-23T04:59:31.009Z,98.46
2019-05-23T05:00:31.008Z,99.46
2019-05-23T05:01:30.992Z,99.99
2019-05-23T05:02:30.986Z,99.99
2019-05-23T05:03:30.984Z,98.22
2019-05-23T05:04:30.974Z,98.99
2019-05-23T05:05:30.969Z,98.22
2019-05-23T05:06:30.958Z,98.22
2019-05-23T05:07:30.952Z,97.75
2019-05-23T05:08:30.946Z,98.22
2019-05-23T05:09:32.092Z,96.98
2019-05-23T05:10:31.013Z,97.22
2019-05-23T05:11:30.924Z,96.41
2019-05-23T05:12:30.914Z,96.94
2019-05-23T05:13:30.915Z,97.32
2019-05-23T05:14:30.901Z,97.71
2019-05-23T05:15:30.894Z,94.93
2019-05-23T05:16:31.170Z,96.37
2019-05-23T05:17:30.875Z,97.13
2019-05-23T05:18:30.870Z,97.66
2019-05-23T05:19:30.868Z,98.23
2019-05-23T05:20:30.860Z,97.94
2019-05-23T05:21:30.858Z,97.66
2019-05-23T05:22:30.841Z,98.03
2019-05-23T05:23:30.839Z,97.56
2019-05-23T05:24:30.835Z,96.61
2019-05-23T05:25:30.828Z,97.32
2019-05-23T05:26:30.820Z,97.61
2019-05-23T05:27:30.825Z,97.32
2019-05-23T05:28:30.813Z,97.13
2019-05-23T05:29:30.807Z,96.94
2019-05-23T05:30:30.800Z,96.08
2019-05-23T05:31:30.793Z,95.41
2019-05-23T05:32:44.158Z,94.89
2019-05-23T05:33:30.785Z,95.07
2019-05-23T05:34:30.776Z,94.89
2019-05-23T05:35:30.773Z,94.98
2019-05-23T05:36:30.768Z,90.30
2019-05-23T05:37:30.763Z,89.53
2019-05-23T05:38:30.758Z,88.10
2019-05-23T05:39:30.762Z,87.34
2019-05-23T05:40:30.768Z,86.76
2019-05-23T05:41:30.745Z,88.48
2019-05-23T05:42:30.738Z,86.38
2019-05-23T05:43:30.738Z,86.52
2019-05-23T05:44:30.733Z,88.53
2019-05-23T05:45:30.721Z,88.43
2019-05-23T05:46:30.719Z,89.20
2019-05-23T05:47:30.716Z,89.39
2019-05-23T05:48:30.715Z,88.72
2019-05-23T05:49:30.713Z,87.86
2019-05-23T05:50:30.707Z,86.47
2019-05-23T05:51:30.704Z,85.99
2019-05-23T05:52:30.699Z,84.17
2019-05-23T05:53:30.696Z,83.79
2019-05-23T05:54:30.703Z,84.36
2019-05-23T05:55:30.690Z,82.93
2019-05-23T05:56:30.684Z,82.40
2019-05-23T05:57:30.688Z,81.82
2019-05-23T05:58:30.678Z,81.68
2019-05-23T05:59:30.673Z,82.40
2019-05-23T06:00:30.669Z,81.44
2019-05-23T06:01:34.097Z,81.15
2019-05-23T06:02:30.899Z,80.58
2019-05-23T06:03:30.663Z,80.10
2019-05-23T06:04:30.662Z,81.00
2019-05-23T06:05:30.663Z,80.81
2019-05-23T06:06:30.653Z,79.85
2019-05-23T06:07:30.642Z,79.57
2019-05-23T06:08:30.641Z,80.04
2019-05-23T06:09:30.648Z,79.75
2019-05-23T06:10:30.637Z,79.70
2019-05-23T06:11:30.643Z,79.32
2019-05-23T06:12:30.653Z,78.93
2019-05-23T06:13:30.630Z,79.22
2019-05-23T06:14:30.630Z,78.17
2019-05-23T06:15:30.633Z,77.02
2019-05-23T06:16:30.629Z,76.67
2019-05-23T06:17:30.641Z,77.15
2019-05-23T06:18:30.624Z,76.67
2019-05-23T06:19:30.623Z,76.96
2019-05-23T06:20:30.618Z,76.96
2019-05-23T06:21:30.776Z,76.48
2019-05-23T06:22:30.634Z,75.04
2019-05-23T06:23:30.625Z,75.14
2019-05-23T06:24:45.146Z,74.66
2019-05-23T06:25:30.613Z,74.27
2019-05-23T06:26:30.603Z,73.80
2019-05-23T06:27:30.603Z,73.55
2019-05-23T06:28:30.608Z,73.45
2019-05-23T06:29:30.604Z,72.97
2019-05-23T06:30:32.729Z,72.49
2019-05-23T06:31:30.600Z,73.07
2019-05-23T06:32:31.598Z,73.16
2019-05-23T06:33:30.598Z,72.88
2019-05-23T06:34:30.605Z,71.63
2019-05-23T06:35:30.633Z,72.81
2019-05-23T06:36:30.599Z,73.20
2019-05-23T06:37:34.170Z,72.81
2019-05-23T06:38:30.605Z,71.95
2019-05-23T06:39:30.594Z,72.81
2019-05-23T06:40:30.590Z,72.81
2019-05-23T06:41:30.586Z,72.24
2019-05-23T06:42:30.586Z,71.98
2019-05-23T06:43:30.597Z,71.61
2019-05-23T06:44:30.598Z,71.03
2019-05-23T06:45:30.592Z,70.26
2019-05-23T06:46:30.589Z,70.17
2019-05-23T06:47:32.144Z,69.72
2019-05-23T06:48:30.588Z,70.10
2019-05-23T06:49:30.603Z,69.75
2019-05-23T06:50:30.590Z,68.89
2019-05-23T06:51:30.590Z,68.89
2019-05-23T06:52:30.591Z,66.49
2019-05-23T06:53:30.591Z,65.72
2019-05-23T06:54:32.136Z,66.42
2019-05-23T06:55:30.591Z,66.39
2019-05-23T06:56:30.586Z,66.97
2019-05-23T06:57:30.595Z,66.00
2019-05-23T06:58:30.635Z,66.23
2019-05-23T06:59:30.594Z,66.14
2019-05-23T07:00:30.589Z,65.08
2019-05-23T07:01:30.592Z,65.27
2019-05-23T07:02:32.235Z,65.30
2019-05-23T07:03:41.806Z,64.34
2019-05-23T07:04:30.598Z,62.51
2019-05-23T07:05:30.608Z,62.51
2019-05-23T07:06:30.598Z,63.38
2019-05-23T07:07:30.600Z,63.79
2019-05-23T07:08:30.607Z,62.54
2019-05-23T07:09:30.608Z,62.93
2019-05-23T07:10:30.611Z,62.16
2019-05-23T07:11:30.612Z,62.38
2019-05-23T07:12:30.613Z,62.77
2019-05-23T07:13:30.615Z,61.13
2019-05-23T07:14:30.619Z,60.75
2019-05-23T07:15:30.615Z,60.46
2019-05-23T07:16:30.618Z,60.27
2019-05-23T07:17:30.618Z,58.75
2019-05-23T07:18:30.625Z,58.75
2019-05-23T07:19:30.624Z,59.43
2019-05-23T07:20:30.627Z,60.39
2019-05-23T07:21:30.638Z,58.95
2019-05-23T07:22:30.634Z,57.69
2019-05-23T07:23:30.633Z,57.60
2019-05-23T07:24:30.631Z,57.72
2019-05-23T07:25:30.640Z,57.43
2019-05-23T07:26:30.643Z,57.82
2019-05-23T07:27:30.645Z,57.82
2019-05-23T07:28:30.648Z,57.62
2019-05-23T07:29:30.651Z,56.76
2019-05-23T07:30:30.653Z,57.43
2019-05-23T07:31:31.479Z,57.24
2019-05-23T07:32:30.661Z,57.85
2019-05-23T07:33:30.668Z,56.21
2019-05-23T07:34:30.668Z,58.04
2019-05-23T07:35:30.667Z,56.88
2019-05-23T07:36:30.683Z,57.07
2019-05-23T07:37:30.677Z,57.68
2019-05-23T07:38:30.678Z,55.94
2019-05-23T07:39:30.708Z,56.52
2019-05-23T07:40:30.687Z,56.49
2019-05-23T07:41:30.709Z,56.24
2019-05-23T07:42:30.691Z,56.52
2019-05-23T07:43:30.691Z,56.24
2019-05-23T07:44:30.699Z,55.85
2019-05-23T07:45:30.704Z,54.50
2019-05-23T07:46:30.704Z,54.72
2019-05-23T07:47:30.707Z,53.17
2019-05-23T07:48:30.708Z,53.47
2019-05-23T07:49:30.714Z,54.53
2019-05-23T07:50:30.719Z,54.33
2019-05-23T07:51:30.719Z,53.49
2019-05-23T07:52:30.724Z,53.20
2019-05-23T07:53:30.725Z,51.27
2019-05-23T07:54:30.729Z,49.41
2019-05-23T07:55:30.736Z,49.63
2019-05-23T07:56:30.748Z,49.73
2019-05-23T07:57:30.743Z,49.65
2019-05-23T07:58:30.749Z,49.85
2019-05-23T07:59:30.756Z,50.62
2019-05-23T08:00:30.758Z,51.01
2019-05-23T08:01:30.765Z,50.81
2019-05-23T08:02:30.771Z,49.73
2019-05-23T08:03:30.773Z,51.07
2019-05-23T08:04:30.789Z,52.43
2019-05-23T08:05:30.775Z,53.30
2019-05-23T08:06:30.781Z,51.29
2019-05-23T08:07:32.814Z,51.01
2019-05-23T08:08:30.789Z,50.23
2019-05-23T08:09:30.793Z,51.65
2019-05-23T08:10:34.078Z,52.07
2019-05-23T08:11:30.800Z,50.81
2019-05-23T08:12:30.806Z,50.84
2019-05-23T08:13:30.835Z,51.15
2019-05-23T08:14:30.815Z,49.32
2019-05-23T08:15:30.821Z,50.21
2019-05-23T08:16:30.824Z,49.82
2019-05-23T08:17:30.823Z,49.24
2019-05-23T08:18:30.830Z,49.95
2019-05-23T08:19:30.834Z,49.27
2019-05-23T08:20:30.835Z,47.81
2019-05-23T08:21:30.845Z,47.62
2019-05-23T08:22:30.848Z,48.03
2019-05-23T08:23:30.854Z,47.84
2019-05-23T08:24:30.867Z,46.29
2019-05-23T08:25:30.861Z,48.13
2019-05-23T08:26:30.875Z,48.52
2019-05-23T08:27:30.871Z,47.06
2019-05-23T08:28:30.878Z,46.77
2019-05-23T08:29:30.884Z,45.81
2019-05-23T08:30:30.890Z,46.29
2019-05-23T08:31:30.891Z,45.68
2019-05-23T08:32:30.902Z,47.04
2019-05-23T08:33:30.906Z,48.01
2019-05-23T08:34:41.264Z,47.94
2019-05-23T08:35:30.915Z,47.45
2019-05-23T08:36:30.927Z,45.71
2019-05-23T08:37:30.943Z,46.67
2019-05-23T08:38:30.926Z,45.34
2019-05-23T08:39:30.942Z,45.61
2019-05-23T08:40:30.947Z,45.03
2019-05-23T08:41:30.944Z,44.13
2019-05-23T08:42:30.955Z,43.48
2019-05-23T08:43:31.106Z,42.90
2019-05-23T08:44:30.964Z,44.45
2019-05-23T08:45:30.973Z,43.00
2019-05-23T08:46:30.974Z,43.29
2019-05-23T08:47:30.978Z,42.71
2019-05-23T08:48:30.991Z,44.93
2019-05-23T08:49:30.994Z,45.25
2019-05-23T08:50:31.002Z,43.89
2019-05-23T08:51:31.002Z,43.70
2019-05-23T08:52:31.006Z,41.76
2019-05-23T08:53:31.009Z,42.61
2019-05-23T08:54:31.015Z,42.41
2019-05-23T08:55:31.027Z,42.32
2019-05-23T08:56:31.033Z,42.49
2019-05-23T08:57:31.044Z,45.01
2019-05-23T08:58:31.043Z,44.62
2019-05-23T08:59:31.046Z,44.84
2019-05-23T09:00:31.051Z,41.93
2019-05-23T09:01:31.057Z,40.96
2019-05-23T09:02:31.064Z,41.83
2019-05-23T09:03:31.078Z,42.82
2019-05-23T09:04:31.082Z,41.88
2019-05-23T09:05:31.086Z,41.00
2019-05-23T09:06:31.093Z,41.31
2019-05-23T09:07:31.092Z,42.19
2019-05-23T09:08:31.105Z,41.82
2019-05-23T09:09:31.113Z,41.05
2019-05-23T09:10:31.122Z,39.11
2019-05-23T09:11:31.118Z,40.64
2019-05-23T09:12:31.131Z,40.83
2019-05-23T09:13:31.141Z,39.47
2019-05-23T09:14:31.138Z,39.98
2019-05-23T09:15:31.140Z,38.91
2019-05-23T09:16:33.231Z,38.40
2019-05-23T09:17:31.162Z,38.78
2019-05-23T09:18:31.188Z,39.92
2019-05-23T09:19:31.173Z,42.65
2019-05-23T09:20:31.179Z,41.39
2019-05-23T09:21:31.200Z,41.12
2019-05-23T09:22:31.183Z,40.66
2019-05-23T09:23:31.189Z,40.56
2019-05-23T09:24:31.204Z,40.48
2019-05-23T09:25:31.209Z,40.39
2019-05-23T09:26:31.208Z,39.03
2019-05-23T09:27:34.479Z,39.72
2019-05-23T09:28:31.226Z,39.62
2019-05-23T09:29:31.228Z,37.70
2019-05-23T09:30:31.235Z,36.71
2019-05-23T09:31:31.250Z,37.96
2019-05-23T09:32:31.249Z,39.41
2019-05-23T09:33:31.258Z,39.03
2019-05-23T09:34:31.263Z,39.32
2019-05-23T09:35:31.313Z,38.83
2019-05-23T09:36:31.275Z,36.71
2019-05-23T09:37:31.287Z,37.10
2019-05-23T09:38:31.288Z,37.41
2019-05-23T09:39:31.295Z,36.83
2019-05-23T09:40:31.301Z,37.14
2019-05-23T09:41:31.310Z,35.99
2019-05-23T09:42:31.321Z,35.11
2019-05-23T09:43:31.333Z,36.40
2019-05-23T09:44:31.328Z,35.71
2019-05-23T09:45:31.337Z,33.11
2019-05-23T09:46:31.344Z,33.88
2019-05-23T09:47:31.350Z,33.78
2019-05-23T09:48:31.359Z,34.45
2019-05-23T09:49:31.366Z,35.03
2019-05-23T09:50:31.373Z,32.29
2019-05-23T09:51:31.392Z,32.87
2019-05-23T09:52:31.383Z,34.42
2019-05-23T09:53:31.396Z,35.60
2019-05-23T09:54:31.406Z,34.11
2019-05-23T09:55:32.253Z,36.15
2019-05-23T09:56:31.422Z,35.86
2019-05-23T09:57:31.440Z,36.36
2019-05-23T09:58:31.428Z,35.60
2019-05-23T09:59:31.436Z,36.20
2019-05-23T10:00:31.451Z,34.64
2019-05-23T10:01:32.254Z,34.37
2019-05-23T10:02:31.473Z,33.90
2019-05-23T10:03:31.478Z,32.53
2019-05-23T10:04:31.490Z,32.43
2019-05-23T10:05:42.780Z,33.01
2019-05-23T10:06:31.495Z,32.15
2019-05-23T10:07:31.502Z,34.00
2019-05-23T10:08:32.259Z,32.42
2019-05-23T10:09:31.520Z,33.59
2019-05-23T10:10:31.528Z,34.00
2019-05-23T10:11:31.536Z,32.92
2019-05-23T10:12:31.539Z,32.16
2019-05-23T10:13:38.913Z,32.26
2019-05-23T10:14:31.561Z,33.04
2019-05-23T10:15:31.570Z,29.24
2019-05-23T10:16:31.572Z,28.90
2019-05-23T10:17:31.582Z,31.53
2019-05-23T10:18:31.612Z,34.55
2019-05-23T10:19:31.600Z,33.18
2019-05-23T10:20:31.605Z,34.37
2019-05-23T10:21:31.641Z,32.82
2019-05-23T10:22:31.622Z,32.15
2019-05-23T10:23:31.631Z,32.43
2019-05-23T10:24:31.698Z,33.12
2019-05-23T10:25:31.640Z,31.46
2019-05-23T10:26:31.648Z,31.37
2019-05-23T10:27:31.657Z,31.46
2019-05-23T10:28:31.666Z,30.29
2019-05-23T10:29:32.283Z,31.46
2019-05-23T10:30:31.680Z,31.35
2019-05-23T10:31:31.689Z,31.25
2019-05-23T10:32:31.694Z,30.07
2019-05-23T10:33:31.709Z,30.64
2019-05-23T10:34:31.730Z,31.11
2019-05-23T10:35:31.715Z,31.58
2019-05-23T10:36:31.722Z,33.04
2019-05-23T10:37:31.724Z,32.84
2019-05-23T10:38:31.738Z,33.06
2019-05-23T10:39:31.748Z,32.96
2019-05-23T10:40:31.757Z,32.47
2019-05-23T10:41:31.765Z,33.85
2019-05-23T10:42:31.763Z,34.24
2019-05-23T10:43:31.771Z,33.86
2019-05-23T10:44:31.777Z,33.01
2019-05-23T10:45:31.789Z,32.62
2019-05-23T10:46:31.798Z,31.54
2019-05-23T10:47:31.835Z,31.27
2019-05-23T10:48:31.810Z,31.56
2019-05-23T10:49:31.817Z,31.37
2019-05-23T10:50:44.220Z,30.78
2019-05-23T10:51:31.823Z,31.27
2019-05-23T10:52:31.839Z,30.39
2019-05-23T10:53:31.849Z,29.52
2019-05-23T10:54:31.852Z,30.96
2019-05-23T10:55:31.852Z,31.16
2019-05-23T10:56:31.868Z,30.28
2019-05-23T10:57:31.877Z,30.55
2019-05-23T10:58:31.884Z,31.73
2019-05-23T10:59:31.892Z,30.94
2019-05-23T11:00:32.802Z,31.45
2019-05-23T11:01:31.906Z,31.74
2019-05-23T11:02:31.910Z,31.17
2019-05-23T11:03:31.921Z,30.41
2019-05-23T11:04:31.926Z,30.60
2019-05-23T11:05:31.932Z,29.82
2019-05-23T11:06:31.954Z,28.45
2019-05-23T11:07:31.947Z,29.22
2019-05-23T11:08:31.968Z,30.39
2019-05-23T11:09:37.843Z,31.38
2019-05-23T11:10:31.971Z,30.60
2019-05-23T11:11:31.983Z,30.80
2019-05-23T11:12:31.975Z,30.41
2019-05-23T11:13:31.998Z,30.41
2019-05-23T11:14:31.998Z,28.45
2019-05-23T11:15:32.006Z,30.10
2019-05-23T11:16:32.010Z,28.63
2019-05-23T11:17:32.024Z,29.58
2019-05-23T11:18:32.031Z,29.28
2019-05-23T11:19:32.034Z,30.33
2019-05-23T11:20:35.851Z,32.84
2019-05-23T11:21:32.042Z,33.34
2019-05-23T11:22:32.048Z,31.30
2019-05-23T11:23:32.055Z,30.91
2019-05-23T11:24:32.065Z,31.79
2019-05-23T11:25:32.065Z,31.21
2019-05-23T11:26:32.072Z,32.08
2019-05-23T11:27:32.081Z,31.77
2019-05-23T11:28:32.089Z,32.94
2019-05-23T11:29:32.094Z,33.64
2019-05-23T11:30:32.099Z,32.10
2019-05-23T11:31:32.103Z,30.54
2019-05-23T11:32:32.115Z,31.01
2019-05-23T11:33:32.121Z,30.52
2019-05-23T11:34:32.127Z,30.52
2019-05-23T11:35:32.143Z,31.30
2019-05-23T11:36:36.307Z,31.61
2019-05-23T11:37:32.145Z,30.65
2019-05-23T11:38:32.154Z,28.59
2019-05-23T11:39:32.152Z,30.15
2019-05-23T11:40:33.750Z,30.43
2019-05-23T11:41:32.177Z,29.75
2019-05-23T11:42:32.176Z,30.43
2019-05-23T11:43:32.186Z,31.11
2019-05-23T11:44:32.198Z,31.13
2019-05-23T11:45:32.203Z,30.64
2019-05-23T11:46:32.206Z,29.78
2019-05-23T11:47:32.347Z,30.07
2019-05-23T11:48:32.221Z,29.78
2019-05-23T11:49:32.233Z,30.17
2019-05-23T11:50:32.239Z,28.79
2019-05-23T11:51:32.263Z,28.40
2019-05-23T11:52:32.248Z,29.47
2019-05-23T11:53:32.265Z,29.58
2019-05-23T11:54:32.270Z,29.08
2019-05-23T11:55:32.299Z,29.96
2019-05-23T11:56:32.292Z,30.15
2019-05-23T11:57:32.287Z,30.52
2019-05-23T11:58:32.949Z,31.30
2019-05-23T11:59:32.292Z,30.93
2019-05-23T12:00:32.314Z,31.24
2019-05-23T12:01:32.305Z,30.55
2019-05-23T12:02:32.322Z,29.58
2019-05-23T12:03:32.324Z,29.97
2019-05-23T12:04:32.341Z,29.18
2019-05-23T12:05:32.367Z,29.18
2019-05-23T12:06:32.345Z,30.14
2019-05-23T12:07:32.355Z,30.04
2019-05-23T12:08:32.361Z,31.22
2019-05-23T12:09:32.370Z,30.25
2019-05-23T12:10:32.365Z,30.44
2019-05-23T12:11:36.379Z,30.54
2019-05-23T12:12:32.387Z,29.28
2019-05-23T12:13:32.397Z,29.68
2019-05-23T12:14:32.402Z,28.61
2019-05-23T12:15:32.399Z,28.51
2019-05-23T12:16:32.415Z,29.66
2019-05-23T12:17:32.409Z,29.10
2019-05-23T12:18:32.423Z,28.40
2019-05-23T12:19:32.484Z,28.40
2019-05-23T12:20:32.430Z,28.68
2019-05-23T12:21:32.436Z,29.26
2019-05-23T12:22:32.450Z,28.86
2019-05-23T12:23:32.449Z,29.82
2019-05-23T12:24:35.237Z,30.12
2019-05-23T12:25:32.455Z,29.33
2019-05-23T12:26:32.460Z,30.50
2019-05-23T12:27:32.475Z,31.18
2019-05-23T12:28:32.471Z,30.50
2019-05-23T12:29:32.493Z,30.98
2019-05-23T12:30:32.484Z,31.47
2019-05-23T12:31:32.487Z,30.61
2019-05-23T12:32:32.508Z,31.00
2019-05-23T12:33:32.499Z,30.62
2019-05-23T12:34:32.502Z,29.93
2019-05-23T12:35:32.514Z,30.41
2019-05-23T12:36:32.519Z,30.79
2019-05-23T12:37:32.520Z,30.79
2019-05-23T12:38:32.528Z,31.45
2019-05-23T12:39:32.529Z,31.24
2019-05-23T12:40:32.539Z,32.99
2019-05-23T12:41:32.549Z,33.18
2019-05-23T12:42:32.555Z,32.04
2019-05-23T12:43:32.552Z,32.42
2019-05-23T12:44:32.560Z,31.55
2019-05-23T12:45:32.566Z,32.13
2019-05-23T12:46:32.571Z,32.32
2019-05-23T12:47:32.571Z,32.71
2019-05-23T12:48:32.606Z,33.49
2019-05-23T12:49:32.587Z,32.62
2019-05-23T12:50:32.626Z,31.45
2019-05-23T12:51:32.590Z,30.27
2019-05-23T12:52:32.603Z,31.13